createdAt,value
2023-03-10T00:02:35.507Z,17.90
2023-03-10T00:05:29.224Z,17.31
2023-03-10T00:08:22.755Z,17.13
2023-03-10T00:11:17.333Z,17.69
2023-03-10T00:14:10.939Z,17.82
2023-03-10T00:17:04.594Z,17.84
2023-03-10T00:19:58.400Z,17.79
2023-03-10T00:22:51.982Z,17.77
2023-03-10T00:25:45.586Z,17.79
2023-03-10T00:28:39.266Z,17.76
2023-03-10T00:31:34.786Z,17.77
2023-03-10T00:34:28.476Z,17.75
2023-03-10T00:37:22.040Z,17.71
2023-03-10T00:40:18.075Z,17.70
2023-03-10T00:43:11.647Z,17.71
2023-03-10T00:46:07.017Z,17.69
2023-03-10T00:49:01.111Z,17.69
2023-03-10T00:51:54.720Z,17.68
2023-03-10T00:54:48.276Z,17.63
2023-03-10T00:57:41.867Z,17.63
2023-03-10T01:00:35.560Z,17.61
2023-03-10T01:03:32.170Z,17.61
2023-03-10T01:06:26.376Z,17.59
2023-03-10T01:09:20.254Z,17.57
2023-03-10T01:12:14.106Z,17.56
2023-03-10T01:15:09.955Z,17.54
2023-03-10T01:18:06.418Z,17.53
2023-03-10T01:21:00.144Z,17.52
2023-03-10T01:23:54.042Z,17.50
2023-03-10T01:26:47.605Z,17.47
2023-03-10T01:29:41.162Z,17.47
2023-03-10T01:32:34.705Z,17.46
2023-03-10T01:35:28.196Z,17.45
2023-03-10T01:38:21.806Z,17.44
2023-03-10T01:41:16.798Z,17.40
2023-03-10T01:44:25.647Z,17.40
2023-03-10T01:47:19.368Z,17.37
2023-03-10T01:50:17.486Z,17.39
2023-03-10T01:53:11.714Z,17.37
2023-03-10T01:56:07.576Z,17.36
2023-03-10T01:59:01.285Z,17.35
2023-03-10T02:01:56.228Z,17.35
2023-03-10T02:04:52.126Z,17.33
2023-03-10T02:07:46.042Z,17.32
2023-03-10T02:10:40.056Z,17.30
2023-03-10T02:13:33.866Z,17.30
2023-03-10T02:16:27.493Z,17.28
2023-03-10T02:19:44.795Z,17.28
2023-03-10T02:22:41.173Z,17.27
2023-03-10T02:25:46.627Z,17.25
2023-03-10T02:28:40.152Z,17.24
2023-03-10T02:31:34.507Z,17.23
2023-03-10T02:34:29.554Z,17.22
2023-03-10T02:37:50.689Z,17.21
2023-03-10T02:40:51.668Z,17.19
2023-03-10T02:43:45.292Z,17.18
2023-03-10T02:46:39.137Z,17.17
2023-03-10T02:49:34.828Z,17.18
2023-03-10T02:52:41.548Z,17.17
2023-03-10T02:55:35.157Z,17.16
2023-03-10T02:58:31.476Z,17.15
2023-03-10T03:01:26.442Z,17.14
2023-03-10T03:04:20.206Z,17.13
2023-03-10T03:07:14.026Z,17.11
2023-03-10T03:10:09.786Z,17.09
2023-03-10T03:13:03.407Z,17.09
2023-03-10T03:15:57.118Z,17.07
2023-03-10T03:18:50.663Z,17.06
2023-03-10T03:21:50.170Z,17.10
2023-03-10T03:24:43.868Z,17.07
2023-03-10T03:27:37.812Z,17.05
2023-03-10T03:30:32.671Z,17.05
2023-03-10T03:33:26.376Z,17.03
2023-03-10T03:36:20.132Z,17.03
2023-03-10T03:39:17.343Z,17.03
2023-03-10T03:42:11.618Z,17.02
2023-03-10T03:45:05.882Z,17.02
2023-03-10T03:47:59.663Z,17.03
2023-03-10T03:50:53.284Z,17.02
2023-03-10T03:53:46.876Z,17.01
2023-03-10T03:56:40.494Z,17.02
2023-03-10T03:59:34.126Z,17.01
2023-03-10T04:02:27.900Z,16.94
2023-03-10T04:05:21.844Z,16.94
2023-03-10T04:08:16.171Z,16.93
2023-03-10T04:11:10.199Z,16.91
2023-03-10T04:14:03.780Z,16.89
2023-03-10T04:16:57.335Z,16.89
2023-03-10T04:20:04.606Z,16.87
2023-03-10T04:23:02.411Z,16.89
2023-03-10T04:25:56.023Z,16.89
2023-03-10T04:28:49.576Z,16.85
2023-03-10T04:31:55.799Z,16.87
2023-03-10T04:34:58.021Z,16.87
2023-03-10T04:37:51.672Z,16.88
2023-03-10T04:40:45.585Z,16.87
2023-03-10T04:43:42.061Z,16.86
2023-03-10T04:46:37.098Z,16.85
2023-03-10T04:49:30.832Z,16.83
2023-03-10T04:52:24.686Z,16.83
2023-03-10T04:55:18.991Z,16.82
2023-03-10T04:58:14.177Z,16.80
2023-03-10T05:01:14.883Z,16.80
2023-03-10T05:04:09.101Z,16.80
2023-03-10T05:07:02.891Z,16.79
2023-03-10T05:09:56.331Z,16.78
2023-03-10T05:12:50.731Z,16.77
2023-03-10T05:15:45.018Z,16.78
2023-03-10T05:18:38.695Z,16.75
2023-03-10T05:21:32.307Z,16.76
2023-03-10T05:24:25.847Z,16.77
2023-03-10T05:27:22.736Z,16.72
2023-03-10T05:30:18.046Z,16.76
2023-03-10T05:33:11.684Z,16.73
2023-03-10T05:36:10.235Z,16.73
2023-03-10T05:39:06.117Z,16.72
2023-03-10T05:41:59.734Z,16.71
2023-03-10T05:44:53.295Z,16.69
2023-03-10T05:47:47.535Z,16.68
2023-03-10T05:50:41.122Z,16.67
2023-03-10T05:53:38.461Z,16.66
2023-03-10T05:56:32.069Z,16.66
2023-03-10T05:59:27.032Z,16.66
2023-03-10T06:02:20.656Z,16.65
2023-03-10T06:05:15.232Z,16.65
2023-03-10T06:07:55.029Z,16.64
2023-03-10T06:10:48.734Z,16.64
2023-03-10T06:13:42.334Z,16.62
2023-03-10T06:16:36.110Z,16.63
2023-03-10T06:19:29.804Z,16.62
2023-03-10T06:22:23.488Z,16.61
2023-03-10T06:25:17.130Z,16.62
2023-03-10T06:28:11.623Z,16.60
2023-03-10T06:31:08.523Z,16.59
2023-03-10T06:34:04.398Z,16.59
2023-03-10T06:36:40.886Z,16.55
2023-03-10T06:39:34.492Z,16.55
2023-03-10T06:42:28.163Z,16.56
2023-03-10T06:45:21.999Z,16.55
2023-03-10T06:48:16.214Z,16.56
2023-03-10T06:51:14.110Z,16.57
2023-03-10T06:54:07.882Z,16.56
2023-03-10T06:57:01.659Z,16.56
2023-03-10T06:59:55.386Z,16.55
2023-03-10T07:02:49.017Z,16.59
2023-03-10T07:05:42.620Z,16.60
2023-03-10T07:08:36.385Z,16.63
2023-03-10T07:11:30.230Z,16.66
2023-03-10T07:14:24.017Z,16.75
2023-03-10T07:17:17.751Z,16.73
2023-03-10T07:20:14.992Z,16.84
2023-03-10T07:23:08.568Z,16.78
2023-03-10T07:26:02.471Z,16.68
2023-03-10T07:28:56.132Z,16.64
2023-03-10T07:31:49.793Z,16.67
2023-03-10T07:34:43.434Z,16.75
2023-03-10T07:37:40.118Z,16.75
2023-03-10T07:40:33.773Z,16.73
2023-03-10T07:43:27.408Z,16.80
2023-03-10T07:46:22.204Z,16.91
2023-03-10T07:49:16.058Z,15.87
2023-03-10T07:52:09.942Z,15.45
2023-03-10T07:55:03.959Z,16.05
2023-03-10T07:58:00.308Z,16.65
2023-03-10T08:00:59.769Z,16.76
2023-03-10T08:03:55.418Z,16.83
2023-03-10T08:06:51.436Z,16.76
2023-03-10T08:10:05.836Z,16.78
2023-03-10T08:12:59.627Z,16.84
2023-03-10T08:15:53.991Z,16.88
2023-03-10T08:18:47.923Z,16.96
2023-03-10T08:21:41.541Z,16.98
2023-03-10T08:24:35.564Z,16.98
2023-03-10T08:27:30.178Z,17.01
2023-03-10T08:30:24.179Z,17.10
2023-03-10T08:33:17.845Z,17.09
2023-03-10T08:36:16.362Z,17.15
2023-03-10T08:39:10.427Z,17.09
2023-03-10T08:42:04.051Z,17.09
2023-03-10T08:44:59.723Z,17.09
2023-03-10T08:47:53.320Z,17.07
2023-03-10T08:50:46.933Z,17.02
2023-03-10T08:53:42.526Z,16.98
2023-03-10T08:56:36.234Z,16.96
2023-03-10T08:59:29.930Z,16.92
2023-03-10T09:02:23.766Z,16.88
2023-03-10T09:05:17.557Z,16.96
2023-03-10T09:08:12.510Z,17.03
2023-03-10T09:11:07.081Z,17.05
2023-03-10T09:14:02.386Z,17.06
2023-03-10T09:16:56.331Z,17.09
2023-03-10T09:19:50.296Z,17.13
2023-03-10T09:22:44.001Z,17.11
2023-03-10T09:25:40.185Z,17.11
2023-03-10T09:28:33.917Z,17.11
2023-03-10T09:31:36.063Z,17.13
2023-03-10T09:34:30.074Z,17.10
2023-03-10T09:37:24.049Z,17.07
2023-03-10T09:40:21.392Z,17.11
2023-03-10T09:43:20.504Z,17.13
2023-03-10T09:46:22.430Z,17.10
2023-03-10T09:49:24.007Z,17.10
2023-03-10T09:52:29.302Z,17.08
2023-03-10T09:55:29.708Z,17.06
2023-03-10T09:58:40.395Z,17.05
2023-03-10T10:01:35.641Z,17.12
2023-03-10T10:04:33.036Z,17.13
2023-03-10T10:07:33.864Z,16.78
2023-03-10T10:10:32.128Z,16.77
2023-03-10T10:13:30.847Z,16.91
2023-03-10T10:16:37.150Z,16.89
2023-03-10T10:19:31.501Z,17.04
2023-03-10T10:22:28.649Z,17.02
2023-03-10T10:25:20.472Z,16.98
2023-03-10T10:28:27.732Z,17.03
2023-03-10T10:31:24.994Z,17.09
2023-03-10T10:34:26.684Z,17.04
2023-03-10T10:37:36.281Z,17.05
2023-03-10T10:40:35.045Z,17.09
2023-03-10T10:43:28.882Z,17.11
2023-03-10T10:46:30.648Z,17.27
2023-03-10T10:49:28.753Z,17.30
2023-03-10T10:52:27.078Z,17.21
2023-03-10T10:55:34.407Z,17.17
2023-03-10T10:58:35.746Z,17.24
2023-03-10T11:01:47.213Z,17.07
2023-03-10T11:04:48.187Z,16.92
2023-03-10T11:07:41.890Z,16.88
2023-03-10T11:10:38.095Z,16.82
2023-03-10T11:13:39.220Z,16.73
2023-03-10T11:16:49.248Z,16.70
2023-03-10T11:20:08.676Z,16.61
2023-03-10T11:23:16.460Z,16.44
2023-03-10T11:26:20.919Z,16.38
2023-03-10T11:29:27.569Z,16.59
2023-03-10T11:32:28.805Z,16.83
2023-03-10T11:35:31.932Z,16.85
2023-03-10T11:38:38.493Z,16.84
2023-03-10T11:41:37.090Z,16.85
2023-03-10T11:44:58.127Z,16.83
2023-03-10T11:48:04.113Z,16.83
2023-03-10T11:51:00.328Z,16.85
2023-03-10T11:54:16.118Z,16.82
2023-03-10T11:57:19.284Z,16.84
2023-03-10T12:00:26.067Z,16.84
2023-03-10T12:03:30.118Z,16.83
2023-03-10T12:06:30.681Z,16.86
2023-03-10T12:09:38.470Z,16.86
2023-03-10T12:12:37.253Z,16.83
2023-03-10T12:15:39.048Z,16.86
2023-03-10T12:18:34.763Z,17.00
2023-03-10T12:21:31.131Z,16.94
2023-03-10T12:24:48.534Z,16.83
2023-03-10T12:28:29.101Z,16.80
2023-03-10T12:31:48.839Z,16.81
2023-03-10T12:34:42.736Z,16.82
2023-03-10T12:37:36.376Z,16.83
2023-03-10T12:40:53.336Z,16.82
2023-03-10T12:44:01.322Z,16.89
2023-03-10T12:47:28.335Z,16.89
2023-03-10T12:50:52.755Z,16.83
2023-03-10T12:53:56.165Z,16.87
2023-03-10T12:57:00.535Z,16.83
2023-03-10T13:00:06.730Z,16.85
2023-03-10T13:03:08.526Z,16.85
2023-03-10T13:06:09.428Z,16.85
2023-03-10T13:09:27.389Z,16.86
2023-03-10T13:12:28.352Z,16.77
2023-03-10T13:15:08.212Z,16.80
2023-03-10T13:18:21.577Z,16.76
2023-03-10T13:21:37.040Z,16.82
2023-03-10T13:24:27.556Z,16.79
2023-03-10T13:27:25.106Z,16.71
2023-03-10T13:30:21.226Z,16.62
2023-03-10T13:33:00.005Z,16.74
2023-03-10T13:35:53.815Z,16.76
2023-03-10T13:38:47.888Z,16.71
2023-03-10T13:41:45.806Z,16.69
2023-03-10T13:44:47.462Z,16.72
2023-03-10T13:47:32.140Z,16.78
2023-03-10T13:50:26.800Z,16.72
2023-03-10T13:53:28.038Z,16.72
2023-03-10T13:56:27.832Z,16.69
2023-03-10T13:59:24.793Z,16.74
2023-03-10T14:02:24.522Z,16.75
2023-03-10T14:08:32.864Z,16.78
2023-03-10T14:11:35.429Z,16.73
2023-03-10T14:14:34.950Z,16.74
2023-03-10T14:17:37.664Z,16.73
2023-03-10T14:20:34.367Z,16.80
2023-03-10T14:23:39.672Z,16.72
2023-03-10T14:26:33.496Z,16.71
2023-03-10T14:29:27.643Z,16.74
2023-03-10T14:32:22.059Z,16.72
2023-03-10T14:35:20.578Z,16.77
2023-03-10T14:38:15.532Z,16.86
2023-03-10T14:41:12.279Z,16.95
2023-03-10T14:44:06.475Z,16.85
2023-03-10T14:47:01.281Z,16.82
2023-03-10T14:49:56.562Z,16.90
2023-03-10T14:52:50.479Z,16.85
2023-03-10T14:55:48.004Z,16.78
2023-03-10T14:58:48.551Z,16.84
2023-03-10T15:01:42.556Z,16.86
2023-03-10T15:04:36.344Z,16.88
2023-03-10T15:07:30.067Z,16.90
2023-03-10T15:10:25.257Z,16.87
2023-03-10T15:13:19.767Z,16.90
2023-03-10T15:16:16.592Z,16.94
2023-03-10T15:19:18.469Z,16.95
2023-03-10T15:22:12.422Z,16.95
2023-03-10T15:25:07.181Z,16.93
2023-03-10T15:28:00.810Z,16.91
2023-03-10T15:30:55.061Z,16.87
2023-03-10T15:33:48.732Z,16.80
2023-03-10T15:36:42.877Z,16.78
2023-03-10T15:39:37.377Z,16.77
2023-03-10T15:42:31.338Z,16.77
2023-03-10T15:45:26.213Z,16.73
2023-03-10T15:48:22.125Z,16.73
2023-03-10T15:51:18.327Z,16.78
2023-03-10T15:54:13.915Z,16.79
2023-03-10T15:57:09.852Z,16.80
2023-03-10T16:00:04.358Z,16.70
2023-03-10T16:02:58.978Z,16.70
2023-03-10T16:05:52.717Z,16.73
2023-03-10T16:08:47.917Z,16.73
2023-03-10T16:11:41.689Z,16.69
2023-03-10T16:14:35.695Z,16.73
2023-03-10T16:17:30.979Z,16.75
2023-03-10T16:20:24.793Z,16.79
2023-03-10T16:23:18.436Z,16.82
2023-03-10T16:26:16.225Z,16.77
2023-03-10T16:29:09.861Z,16.69
2023-03-10T16:32:03.571Z,16.71
2023-03-10T16:34:59.969Z,16.71
2023-03-10T16:38:14.700Z,16.63
2023-03-10T16:41:09.773Z,16.77
2023-03-10T16:44:06.811Z,16.72
2023-03-10T16:47:00.725Z,16.73
2023-03-10T16:49:54.699Z,16.73
2023-03-10T16:52:48.668Z,16.69
2023-03-10T16:55:42.297Z,16.71
2023-03-10T16:58:35.902Z,16.73
2023-03-10T17:01:29.667Z,16.65
2023-03-10T17:04:23.656Z,16.65
2023-03-10T17:07:19.230Z,16.66
2023-03-10T17:10:14.681Z,16.64
2023-03-10T17:12:57.006Z,16.63
2023-03-10T17:15:50.925Z,16.57
2023-03-10T17:18:45.425Z,16.61
2023-03-10T17:21:41.542Z,16.61
2023-03-10T17:24:35.869Z,16.57
2023-03-10T17:27:30.380Z,16.56
2023-03-10T17:30:24.360Z,16.57
2023-03-10T17:33:18.064Z,16.56
2023-03-10T17:36:14.786Z,16.57
2023-03-10T17:39:10.240Z,16.60
2023-03-10T17:42:05.451Z,16.55
2023-03-10T17:45:00.269Z,16.57
2023-03-10T17:47:54.508Z,16.57
2023-03-10T17:50:52.182Z,16.54
2023-03-10T17:53:46.824Z,16.53
2023-03-10T17:56:41.504Z,16.52
2023-03-10T17:59:39.091Z,16.51
2023-03-10T18:02:33.436Z,16.50
2023-03-10T18:05:27.251Z,16.58
2023-03-10T18:08:20.856Z,16.57
2023-03-10T18:11:14.623Z,16.53
2023-03-10T18:14:08.610Z,16.56
2023-03-10T18:17:03.092Z,16.52
2023-03-10T18:19:57.102Z,16.59
2023-03-10T18:22:50.887Z,16.56
2023-03-10T18:25:45.967Z,16.58
2023-03-10T18:28:40.324Z,16.55
2023-03-10T18:31:35.775Z,16.55
2023-03-10T18:34:29.702Z,16.50
2023-03-10T18:37:23.261Z,16.47
2023-03-10T18:40:19.600Z,16.52
2023-03-10T18:43:13.419Z,16.55
2023-03-10T18:46:08.367Z,16.51
2023-03-10T18:49:01.991Z,16.52
2023-03-10T18:51:55.592Z,16.53
2023-03-10T18:54:51.002Z,16.52
2023-03-10T18:57:45.811Z,16.48
2023-03-10T19:00:40.133Z,16.46
2023-03-10T19:03:34.174Z,16.44
2023-03-10T19:06:32.318Z,16.45
2023-03-10T19:09:27.771Z,16.45
2023-03-10T19:12:24.745Z,16.40
2023-03-10T19:15:19.163Z,16.41
2023-03-10T19:18:13.177Z,16.43
2023-03-10T19:21:09.634Z,16.41
2023-03-10T19:24:05.197Z,16.41
2023-03-10T19:27:00.056Z,16.48
2023-03-10T19:29:56.754Z,16.48
2023-03-10T19:32:51.352Z,16.46
2023-03-10T19:35:46.080Z,16.46
2023-03-10T19:38:40.833Z,16.39
2023-03-10T19:41:34.592Z,16.39
2023-03-10T19:44:28.781Z,16.39
2023-03-10T19:47:23.446Z,16.38
2023-03-10T19:50:18.890Z,16.40
2023-03-10T19:53:12.787Z,16.34
2023-03-10T19:56:10.149Z,16.34
2023-03-10T19:59:04.161Z,16.34
2023-03-10T20:02:01.601Z,16.35
2023-03-10T20:04:55.355Z,16.42
2023-03-10T20:07:49.607Z,16.44
2023-03-10T20:10:44.964Z,16.38
2023-03-10T20:13:38.577Z,16.35
2023-03-10T20:16:32.985Z,16.39
2023-03-10T20:19:33.660Z,16.39
2023-03-10T20:22:27.415Z,16.38
2023-03-10T20:25:24.548Z,16.35
2023-03-10T20:28:18.833Z,16.38
2023-03-10T20:31:15.344Z,16.42
2023-03-10T20:34:16.834Z,16.39
2023-03-10T20:37:10.508Z,16.40
2023-03-10T20:40:06.065Z,16.37
2023-03-10T20:43:00.650Z,16.40
2023-03-10T20:45:57.022Z,16.45
2023-03-10T20:48:52.509Z,16.44
2023-03-10T20:51:46.176Z,16.40
2023-03-10T20:54:39.789Z,16.37
2023-03-10T20:57:34.265Z,16.37
2023-03-10T21:00:31.265Z,16.38
2023-03-10T21:03:28.657Z,16.37
2023-03-10T21:06:22.355Z,16.28
2023-03-10T21:09:16.571Z,16.25
2023-03-10T21:12:11.346Z,16.45
2023-03-10T21:15:05.721Z,16.45
2023-03-10T21:17:59.407Z,16.43
2023-03-10T21:20:54.856Z,16.37
2023-03-10T21:23:49.407Z,16.37
2023-03-10T21:26:43.854Z,16.40
2023-03-10T21:29:37.877Z,16.40
2023-03-10T21:32:33.211Z,16.40
2023-03-10T21:35:30.616Z,16.40
2023-03-10T21:38:26.082Z,16.39
2023-03-10T21:41:23.116Z,16.40
2023-03-10T21:44:08.031Z,16.40
2023-03-10T21:47:01.717Z,16.35
2023-03-10T21:49:55.443Z,16.36
2023-03-10T21:52:49.460Z,16.38
2023-03-10T21:55:43.328Z,16.37
2023-03-10T21:58:37.047Z,16.34
2023-03-10T22:01:30.732Z,16.41
2023-03-10T22:04:24.345Z,16.35
2023-03-10T22:07:18.096Z,16.31
2023-03-10T22:10:14.457Z,16.28
2023-03-10T22:13:08.521Z,16.20
2023-03-10T22:16:05.631Z,15.31
2023-03-10T22:18:59.403Z,15.98
2023-03-10T22:21:53.082Z,16.13
2023-03-10T22:24:46.772Z,16.15
2023-03-10T22:27:40.374Z,16.14
2023-03-10T22:30:34.025Z,16.12
2023-03-10T22:33:27.775Z,16.11
2023-03-10T22:36:21.926Z,16.23
2023-03-10T22:39:16.585Z,16.27
2023-03-10T22:42:10.704Z,16.12
2023-03-10T22:45:05.072Z,16.09
2023-03-10T22:48:01.082Z,16.17
2023-03-10T22:50:54.765Z,16.20
2023-03-10T22:53:48.501Z,16.17
2023-03-10T22:56:42.127Z,16.17
2023-03-10T22:59:35.811Z,16.16
2023-03-10T23:02:29.548Z,16.17
2023-03-10T23:05:24.015Z,16.18
2023-03-10T23:08:17.733Z,16.16
2023-03-10T23:11:15.084Z,16.15
2023-03-10T23:14:08.688Z,16.16
2023-03-10T23:17:02.242Z,16.12
2023-03-10T23:19:56.960Z,15.99
2023-03-10T23:22:50.638Z,16.10
2023-03-10T23:25:47.426Z,16.16
2023-03-10T23:28:41.531Z,16.19
2023-03-10T23:31:35.157Z,16.14
2023-03-10T23:34:28.841Z,16.12
2023-03-10T23:37:22.405Z,16.11
2023-03-10T23:40:20.763Z,16.11
2023-03-10T23:43:15.723Z,16.11
2023-03-10T23:46:10.832Z,16.10
2023-03-10T23:49:04.462Z,16.10
2023-03-10T23:51:57.996Z,16.07
2023-03-10T23:54:51.566Z,16.08
2023-03-10T23:57:45.236Z,16.06
